Terminal Aerodrome Forecast
Issued by NWS

Home | Current Version | Previous Version | Graphics & Text | Print | Product List | Glossary On
Versions: 1 2 3 4 5 6 7 8 9 10 11 12 13 14 15
000
FTUS43 KMPX 281120
TAFRNH
TAF
KRNH 281120Z 2812/2912 15009KT P6SM VCSH BKN060
      TEMPO 2813/2816 2SM -TSRA BR OVC020CB
     FM281700 17015G23KT P6SM -SHRA SCT020 OVC035
     FM281900 18016G24KT P6SM VCSH BKN035 OVC050
     FM290200 23010KT P6SM BKN060
     FM290800 25008KT P6SM SCT250=

USA.gov is the U.S. government's official web portal to all federal, state and local government web resources and services.